createdAt,value
2023-10-20T00:00:42.046Z,12.34
2023-10-20T00:03:10.000Z,12.31
2023-10-20T00:05:37.298Z,12.34
2023-10-20T00:08:04.290Z,12.38
2023-10-20T00:10:38.305Z,12.59
2023-10-20T00:13:06.120Z,12.52
2023-10-20T00:15:33.590Z,12.52
2023-10-20T00:18:47.722Z,12.57
2023-10-20T00:21:14.957Z,12.53
2023-10-20T00:23:41.434Z,12.47
2023-10-20T00:26:08.082Z,12.47
2023-10-20T00:28:34.609Z,12.37
2023-10-20T00:31:01.105Z,12.43
2023-10-20T00:33:27.601Z,12.48
2023-10-20T00:35:54.438Z,12.42
2023-10-20T00:38:20.967Z,12.37
2023-10-20T00:40:51.875Z,12.28
2023-10-20T00:43:18.693Z,12.28
2023-10-20T00:45:46.598Z,12.28
2023-10-20T00:48:14.384Z,12.40
2023-10-20T00:50:44.902Z,12.43
2023-10-20T00:53:12.500Z,12.44
2023-10-20T00:55:40.269Z,12.29
2023-10-20T00:58:08.149Z,12.40
2023-10-20T01:00:35.497Z,12.28
2023-10-20T01:03:02.177Z,12.45
2023-10-20T01:05:28.840Z,12.50
2023-10-20T01:07:55.494Z,12.61
2023-10-20T01:10:22.216Z,12.46
2023-10-20T01:12:48.778Z,12.75
2023-10-20T01:15:15.888Z,12.61
2023-10-20T01:17:42.678Z,12.75
2023-10-20T01:20:10.011Z,12.78
2023-10-20T01:22:36.830Z,12.73
2023-10-20T01:25:03.674Z,12.78
2023-10-20T01:27:30.201Z,12.62
2023-10-20T01:29:56.749Z,12.70
2023-10-20T01:32:23.261Z,12.62
2023-10-20T01:34:49.801Z,12.55
2023-10-20T01:37:16.400Z,12.59
2023-10-20T01:39:43.047Z,12.64
2023-10-20T01:42:09.706Z,12.71
2023-10-20T01:44:36.344Z,12.67
2023-10-20T01:47:03.057Z,12.61
2023-10-20T01:49:29.790Z,12.63
2023-10-20T01:51:56.330Z,12.66
2023-10-20T01:54:22.860Z,12.69
2023-10-20T01:56:49.625Z,12.78
2023-10-20T01:59:17.423Z,12.93
2023-10-20T02:01:43.989Z,12.81
2023-10-20T02:04:10.565Z,12.89
2023-10-20T02:06:37.226Z,12.85
2023-10-20T02:09:04.342Z,12.82
2023-10-20T02:11:30.870Z,12.79
2023-10-20T02:13:58.370Z,12.83
2023-10-20T02:16:25.563Z,12.78
2023-10-20T02:18:52.149Z,12.54
2023-10-20T02:21:18.670Z,12.62
2023-10-20T02:23:45.190Z,12.73
2023-10-20T02:26:12.346Z,12.72
2023-10-20T02:28:39.316Z,12.68
2023-10-20T02:31:21.271Z,12.76
2023-10-20T02:33:49.033Z,12.88
2023-10-20T02:36:20.462Z,12.84
2023-10-20T02:38:49.433Z,12.92
2023-10-20T02:41:17.054Z,12.98
2023-10-20T02:43:43.654Z,13.13
2023-10-20T02:46:10.881Z,13.19
2023-10-20T02:48:37.387Z,13.22
2023-10-20T02:51:14.765Z,13.07
2023-10-20T02:53:42.294Z,13.28
2023-10-20T02:56:20.098Z,13.31
2023-10-20T02:58:48.431Z,13.15
2023-10-20T03:01:17.374Z,13.22
2023-10-20T03:03:45.322Z,13.22
2023-10-20T03:06:12.798Z,12.98
2023-10-20T03:08:40.646Z,12.88
2023-10-20T03:11:09.556Z,13.14
2023-10-20T03:13:36.179Z,13.15
2023-10-20T03:16:02.716Z,12.93
2023-10-20T03:18:29.723Z,12.94
2023-10-20T03:21:00.169Z,12.77
2023-10-20T03:23:26.714Z,12.82
2023-10-20T03:25:53.352Z,12.80
2023-10-20T03:28:19.850Z,12.84
2023-10-20T03:33:17.177Z,12.85
2023-10-20T03:35:43.780Z,12.94
2023-10-20T03:38:10.484Z,13.04
2023-10-20T03:40:43.540Z,13.12
2023-10-20T03:43:11.103Z,13.16
2023-10-20T03:45:42.695Z,13.10
2023-10-20T03:48:10.664Z,13.33
2023-10-20T03:50:39.825Z,13.48
2023-10-20T03:53:07.336Z,13.61
2023-10-20T03:55:35.214Z,13.75
2023-10-20T03:58:02.427Z,13.74
2023-10-20T04:00:29.674Z,14.12
2023-10-20T04:02:57.711Z,14.24
2023-10-20T04:05:25.311Z,14.33
2023-10-20T04:07:51.879Z,14.40
2023-10-20T04:10:21.877Z,14.48
2023-10-20T04:12:49.382Z,14.34
2023-10-20T04:15:27.511Z,14.55
2023-10-20T04:17:55.731Z,14.59
2023-10-20T04:20:24.857Z,14.65
2023-10-20T04:22:51.627Z,14.74
2023-10-20T04:25:20.177Z,14.78
2023-10-20T04:27:51.042Z,14.81
2023-10-20T04:30:37.376Z,14.71
2023-10-20T04:33:24.329Z,14.79
2023-10-20T04:36:10.298Z,14.82
2023-10-20T04:38:55.694Z,14.76
2023-10-20T04:41:40.701Z,14.42
2023-10-20T04:44:16.073Z,14.01
2023-10-20T04:46:59.580Z,13.88
2023-10-20T04:49:49.272Z,13.71
2023-10-20T04:52:35.132Z,13.57
2023-10-20T04:55:22.228Z,13.51
2023-10-20T04:57:48.726Z,13.40
2023-10-20T05:00:32.869Z,13.24
2023-10-20T05:03:02.193Z,13.30
2023-10-20T05:05:28.873Z,13.41
2023-10-20T05:08:17.809Z,13.42
2023-10-20T05:10:46.086Z,13.34
2023-10-20T05:13:13.052Z,13.33
2023-10-20T05:15:40.113Z,13.32
2023-10-20T05:18:07.506Z,13.27
2023-10-20T05:20:38.031Z,13.29
2023-10-20T05:23:07.909Z,13.37
2023-10-20T05:25:34.583Z,13.26
2023-10-20T05:28:01.633Z,13.36
2023-10-20T05:30:28.637Z,13.22
2023-10-20T05:32:55.368Z,13.37
2023-10-20T05:35:22.032Z,13.35
2023-10-20T05:37:48.548Z,12.99
2023-10-20T05:40:15.081Z,13.33
2023-10-20T05:42:41.601Z,13.32
2023-10-20T05:45:11.721Z,13.36
2023-10-20T05:47:39.522Z,13.38
2023-10-20T05:50:07.544Z,13.35
2023-10-20T05:52:36.858Z,13.54
2023-10-20T05:55:04.740Z,13.52
2023-10-20T05:57:31.508Z,13.72
2023-10-20T06:00:01.008Z,13.79
2023-10-20T06:02:29.212Z,13.86
2023-10-20T06:04:56.121Z,13.79
2023-10-20T06:07:22.862Z,13.98
2023-10-20T06:09:50.794Z,13.67
2023-10-20T06:12:17.997Z,13.98
2023-10-20T06:14:44.825Z,14.01
2023-10-20T06:17:11.777Z,14.04
2023-10-20T06:19:38.399Z,14.04
2023-10-20T06:22:06.624Z,13.99
2023-10-20T06:24:34.469Z,14.07
2023-10-20T06:27:03.805Z,14.07
2023-10-20T06:29:34.096Z,14.21
2023-10-20T06:32:19.629Z,14.31
2023-10-20T06:34:47.617Z,14.48
2023-10-20T06:37:20.765Z,14.58
2023-10-20T06:39:47.251Z,14.72
2023-10-20T06:42:13.701Z,14.75
2023-10-20T06:44:40.238Z,14.89
2023-10-20T06:47:06.794Z,15.05
2023-10-20T06:49:33.663Z,15.08
2023-10-20T06:52:04.804Z,15.09
2023-10-20T06:54:32.043Z,15.26
2023-10-20T06:56:59.305Z,15.24
2023-10-20T06:59:26.016Z,15.39
2023-10-20T07:01:53.557Z,15.36
2023-10-20T07:04:20.538Z,15.35
2023-10-20T07:06:47.097Z,15.54
2023-10-20T07:09:13.620Z,15.62
2023-10-20T07:11:44.380Z,15.62
2023-10-20T07:14:15.345Z,15.77
2023-10-20T07:16:42.044Z,15.85
2023-10-20T07:19:09.063Z,15.82
2023-10-20T07:21:36.118Z,15.80
2023-10-20T07:24:05.609Z,15.97
2023-10-20T07:26:32.245Z,15.91
2023-10-20T07:28:58.788Z,15.99
2023-10-20T07:31:27.445Z,16.25
2023-10-20T07:33:54.253Z,16.34
2023-10-20T07:36:21.457Z,16.34
2023-10-20T07:38:48.039Z,16.52
2023-10-20T07:41:15.078Z,16.61
2023-10-20T07:43:42.308Z,16.67
2023-10-20T07:46:18.361Z,16.59
2023-10-20T07:48:45.518Z,16.75
2023-10-20T07:51:12.874Z,16.84
2023-10-20T07:53:39.605Z,16.88
2023-10-20T07:56:06.312Z,16.88
2023-10-20T07:58:34.050Z,17.19
2023-10-20T08:01:02.002Z,17.16
2023-10-20T08:03:28.938Z,17.29
2023-10-20T08:05:56.232Z,17.39
2023-10-20T08:08:23.179Z,17.52
2023-10-20T08:10:50.826Z,17.61
2023-10-20T08:13:18.023Z,17.60
2023-10-20T08:15:44.770Z,17.39
2023-10-20T08:18:11.981Z,17.80
2023-10-20T08:20:38.945Z,17.88
2023-10-20T08:23:05.849Z,17.95
2023-10-20T08:25:32.382Z,18.02
2023-10-20T08:27:59.125Z,17.95
2023-10-20T08:30:25.665Z,18.13
2023-10-20T08:32:52.237Z,18.10
2023-10-20T08:35:19.124Z,18.11
2023-10-20T08:37:45.580Z,18.36
2023-10-20T08:40:12.418Z,18.43
2023-10-20T08:42:40.306Z,18.47
2023-10-20T08:45:13.373Z,18.57
2023-10-20T08:47:43.152Z,18.62
2023-10-20T08:50:13.252Z,18.67
2023-10-20T08:52:40.852Z,18.70
2023-10-20T08:55:08.798Z,18.61
2023-10-20T08:57:35.643Z,18.71
2023-10-20T09:00:02.398Z,18.71
2023-10-20T09:02:39.458Z,18.73
2023-10-20T09:05:07.973Z,18.74
2023-10-20T09:07:35.176Z,18.76
2023-10-20T09:10:02.677Z,18.90
2023-10-20T09:12:31.183Z,18.96
2023-10-20T09:14:58.362Z,19.08
2023-10-20T09:17:25.469Z,19.16
2023-10-20T09:19:52.136Z,19.22
2023-10-20T09:22:30.385Z,19.49
2023-10-20T09:24:57.829Z,19.61
2023-10-20T09:27:25.886Z,19.86
2023-10-20T09:29:53.985Z,20.09
2023-10-20T09:32:20.832Z,20.04
2023-10-20T09:34:47.995Z,20.39
2023-10-20T09:37:16.618Z,20.55
2023-10-20T09:39:47.501Z,20.74
2023-10-20T09:42:15.290Z,20.99
2023-10-20T09:44:52.300Z,21.10
2023-10-20T09:47:40.831Z,21.31
2023-10-20T09:50:07.538Z,21.33
2023-10-20T09:52:34.687Z,21.59
2023-10-20T09:55:02.595Z,21.73
2023-10-20T09:57:29.705Z,21.80
2023-10-20T09:59:56.337Z,21.97
2023-10-20T10:02:30.715Z,22.03
2023-10-20T10:04:58.219Z,22.14
2023-10-20T10:07:34.321Z,22.25
2023-10-20T10:10:01.681Z,22.39
2023-10-20T10:12:30.122Z,22.47
2023-10-20T10:15:02.944Z,22.60
2023-10-20T10:17:29.971Z,22.72
2023-10-20T10:19:57.448Z,22.79
2023-10-20T10:22:29.220Z,22.80
2023-10-20T10:24:58.093Z,22.81
2023-10-20T10:27:31.530Z,22.83
2023-10-20T10:30:06.657Z,22.97
2023-10-20T10:32:35.632Z,23.11
2023-10-20T10:35:05.141Z,23.12
2023-10-20T10:37:34.568Z,23.36
2023-10-20T10:40:08.612Z,23.39
2023-10-20T10:42:54.035Z,23.51
2023-10-20T10:45:36.793Z,23.57
2023-10-20T10:48:11.297Z,23.65
2023-10-20T10:50:39.983Z,23.58
2023-10-20T10:53:06.712Z,23.70
2023-10-20T10:55:35.481Z,23.83
2023-10-20T10:58:03.562Z,23.97
2023-10-20T11:00:30.482Z,24.10
2023-10-20T11:02:58.438Z,24.19
2023-10-20T11:05:26.202Z,24.22
2023-10-20T11:08:06.574Z,24.09
2023-10-20T11:10:36.009Z,24.28
2023-10-20T11:13:07.701Z,24.32
2023-10-20T11:15:34.978Z,24.37
2023-10-20T11:18:03.005Z,24.48
2023-10-20T11:20:34.396Z,24.60
2023-10-20T11:23:02.095Z,24.54
2023-10-20T11:25:30.856Z,24.72
2023-10-20T11:27:58.292Z,24.91
2023-10-20T11:30:29.544Z,24.84
2023-10-20T11:32:57.254Z,24.88
2023-10-20T11:35:27.976Z,25.09
2023-10-20T11:37:55.378Z,25.35
2023-10-20T11:40:22.776Z,25.47
2023-10-20T11:42:49.649Z,25.37
2023-10-20T11:45:17.472Z,25.59
2023-10-20T11:47:44.048Z,25.63
2023-10-20T11:50:20.083Z,25.69
2023-10-20T11:52:46.790Z,25.75
2023-10-20T11:55:13.604Z,25.75
2023-10-20T11:57:40.809Z,25.61
2023-10-20T12:00:08.902Z,25.72
2023-10-20T12:02:35.668Z,25.71
2023-10-20T12:05:02.625Z,25.79
2023-10-20T12:07:29.315Z,25.81
2023-10-20T12:09:55.912Z,25.79
2023-10-20T12:12:22.482Z,25.71
2023-10-20T12:14:49.223Z,25.65
2023-10-20T12:17:16.220Z,25.66
2023-10-20T12:19:42.928Z,25.47
2023-10-20T12:22:12.235Z,25.58
2023-10-20T12:24:38.807Z,25.51
2023-10-20T12:27:05.286Z,25.43
2023-10-20T12:29:32.130Z,25.44
2023-10-20T12:32:00.094Z,25.44
2023-10-20T12:34:27.587Z,25.47
2023-10-20T12:36:54.211Z,25.39
2023-10-20T12:39:21.745Z,25.42
2023-10-20T12:41:49.195Z,25.46
2023-10-20T12:44:15.780Z,25.46
2023-10-20T12:46:42.362Z,25.44
2023-10-20T12:49:08.941Z,25.44
2023-10-20T12:51:35.802Z,25.49
2023-10-20T12:54:03.282Z,25.53
2023-10-20T12:56:29.924Z,25.42
2023-10-20T12:58:56.493Z,25.57
2023-10-20T13:01:23.105Z,25.60
2023-10-20T13:03:50.092Z,25.61
2023-10-20T13:06:16.964Z,25.48
2023-10-20T13:08:46.869Z,25.47
2023-10-20T13:11:14.036Z,25.26
2023-10-20T13:13:41.580Z,25.27
2023-10-20T13:16:09.122Z,25.38
2023-10-20T13:18:37.005Z,25.11
2023-10-20T13:21:06.506Z,24.93
2023-10-20T13:23:33.717Z,24.83
2023-10-20T13:26:06.550Z,24.72
2023-10-20T13:28:33.723Z,24.84
2023-10-20T13:31:12.378Z,24.76
2023-10-20T13:33:40.979Z,24.68
2023-10-20T13:36:11.258Z,24.59
2023-10-20T13:38:39.029Z,24.42
2023-10-20T13:41:06.354Z,24.42
2023-10-20T13:43:33.317Z,24.15
2023-10-20T13:46:00.177Z,24.08
2023-10-20T13:48:27.327Z,24.03
2023-10-20T13:50:54.453Z,24.15
2023-10-20T13:53:21.177Z,24.13
2023-10-20T13:55:48.826Z,24.05
2023-10-20T13:58:15.828Z,24.03
2023-10-20T14:00:42.379Z,23.91
2023-10-20T14:03:08.984Z,23.98
2023-10-20T14:05:36.243Z,23.93
2023-10-20T14:08:04.133Z,23.93
2023-10-20T14:10:32.193Z,23.82
2023-10-20T14:12:58.963Z,23.77
2023-10-20T14:15:25.516Z,23.89
2023-10-20T14:17:52.096Z,23.79
2023-10-20T14:20:19.348Z,23.78
2023-10-20T14:22:45.974Z,23.78
2023-10-20T14:25:12.605Z,23.70
2023-10-20T14:27:40.648Z,23.46
2023-10-20T14:30:08.228Z,23.75
2023-10-20T14:32:35.236Z,23.54
2023-10-20T14:35:02.079Z,23.60
2023-10-20T14:37:28.596Z,23.55
2023-10-20T14:39:57.100Z,23.55
2023-10-20T14:42:23.713Z,23.53
2023-10-20T14:44:51.609Z,23.43
2023-10-20T14:47:18.618Z,23.50
2023-10-20T14:49:45.272Z,23.34
2023-10-20T14:52:13.662Z,22.99
2023-10-20T14:54:42.181Z,23.39
2023-10-20T14:57:10.186Z,23.36
2023-10-20T14:59:37.297Z,23.33
2023-10-20T15:02:05.128Z,23.20
2023-10-20T15:04:34.043Z,23.21
2023-10-20T15:07:00.790Z,23.01
2023-10-20T15:09:28.136Z,22.83
2023-10-20T15:11:54.719Z,23.00
2023-10-20T15:14:21.304Z,23.02
2023-10-20T15:16:47.755Z,22.86
2023-10-20T15:19:14.889Z,23.02
2023-10-20T15:21:41.446Z,23.08
2023-10-20T15:24:10.720Z,23.06
2023-10-20T15:26:37.585Z,22.96
2023-10-20T15:29:05.094Z,22.95
2023-10-20T15:31:32.185Z,22.97
2023-10-20T15:33:59.653Z,23.01
2023-10-20T15:36:28.722Z,22.91
2023-10-20T15:38:55.515Z,23.02
2023-10-20T15:41:23.001Z,22.85
2023-10-20T15:43:49.763Z,22.89
2023-10-20T15:46:16.469Z,22.82
2023-10-20T15:48:43.239Z,22.64
2023-10-20T15:51:09.909Z,22.61
2023-10-20T15:53:36.547Z,22.75
2023-10-20T15:56:03.252Z,22.55
2023-10-20T15:58:31.577Z,22.58
2023-10-20T16:01:01.456Z,22.65
2023-10-20T16:03:28.348Z,22.64
2023-10-20T16:05:55.288Z,22.50
2023-10-20T16:08:21.970Z,22.44
2023-10-20T16:10:49.143Z,22.51
2023-10-20T16:13:15.796Z,22.51
2023-10-20T16:15:42.305Z,22.49
2023-10-20T16:18:09.649Z,22.44
2023-10-20T16:20:36.335Z,22.40
2023-10-20T16:23:03.947Z,22.41
2023-10-20T16:25:30.718Z,22.40
2023-10-20T16:27:59.249Z,22.41
2023-10-20T16:30:25.694Z,22.37
2023-10-20T16:32:52.246Z,22.35
2023-10-20T16:35:18.874Z,22.36
2023-10-20T16:37:45.388Z,22.39
2023-10-20T16:40:13.008Z,22.39
2023-10-20T16:42:39.557Z,22.31
2023-10-20T16:45:11.096Z,22.38
2023-10-20T16:47:39.075Z,22.37
2023-10-20T16:50:07.123Z,22.44
2023-10-20T16:52:35.609Z,22.54
2023-10-20T16:55:02.123Z,22.60
2023-10-20T16:57:28.605Z,22.71
2023-10-20T16:59:55.140Z,22.78
2023-10-20T17:02:21.806Z,22.80
2023-10-20T17:04:48.330Z,22.87
2023-10-20T17:07:14.813Z,22.87
2023-10-20T17:09:41.303Z,22.74
2023-10-20T17:12:08.450Z,22.89
2023-10-20T17:14:35.086Z,22.90
2023-10-20T17:17:01.645Z,22.77
2023-10-20T17:19:28.145Z,22.87
2023-10-20T17:21:54.684Z,22.96
2023-10-20T17:24:21.202Z,22.90
2023-10-20T17:26:47.686Z,22.70
2023-10-20T17:29:14.256Z,22.86
2023-10-20T17:31:40.778Z,22.85
2023-10-20T17:34:07.264Z,22.73
2023-10-20T17:36:33.745Z,22.73
2023-10-20T17:39:00.986Z,22.67
2023-10-20T17:41:27.704Z,22.58
2023-10-20T17:43:54.218Z,22.70
2023-10-20T17:46:20.830Z,22.73
2023-10-20T17:48:47.544Z,22.71
2023-10-20T17:51:14.140Z,22.71
2023-10-20T17:53:40.677Z,22.77
2023-10-20T17:56:07.399Z,22.73
2023-10-20T17:58:34.365Z,22.77
2023-10-20T18:01:08.611Z,22.72
2023-10-20T18:03:43.704Z,22.69
2023-10-20T18:06:16.840Z,22.73
2023-10-20T18:08:47.381Z,22.63
2023-10-20T18:11:15.631Z,22.57
2023-10-20T18:13:44.406Z,22.49
2023-10-20T18:16:16.290Z,22.45
2023-10-20T18:18:45.667Z,22.45
2023-10-20T18:21:13.243Z,22.46
2023-10-20T18:23:40.708Z,22.41
2023-10-20T18:26:11.199Z,22.25
2023-10-20T18:28:38.252Z,22.30
2023-10-20T18:31:15.375Z,22.23
2023-10-20T18:33:42.624Z,22.16
2023-10-20T18:36:09.676Z,22.06
2023-10-20T18:38:36.258Z,22.09
2023-10-20T18:41:04.184Z,22.08
2023-10-20T18:43:31.031Z,22.10
2023-10-20T18:46:00.947Z,22.04
2023-10-20T18:48:28.355Z,22.04
2023-10-20T18:51:06.422Z,21.99
2023-10-20T18:53:33.529Z,22.00
2023-10-20T18:56:00.169Z,21.99
2023-10-20T18:58:26.782Z,22.03
2023-10-20T19:00:54.156Z,22.08
2023-10-20T19:03:21.265Z,22.08
2023-10-20T19:05:51.083Z,22.08
2023-10-20T19:08:18.084Z,21.99
2023-10-20T19:10:44.939Z,22.09
2023-10-20T19:13:11.587Z,21.94
2023-10-20T19:15:38.168Z,22.06
2023-10-20T19:18:05.226Z,22.07
2023-10-20T19:20:31.855Z,21.92
2023-10-20T19:22:58.392Z,22.03
2023-10-20T19:25:25.005Z,22.03
2023-10-20T19:27:51.666Z,22.03
2023-10-20T19:30:18.169Z,22.01
2023-10-20T19:32:44.810Z,21.97
2023-10-20T19:35:11.553Z,21.87
2023-10-20T19:37:38.459Z,21.80
2023-10-20T19:40:07.044Z,21.84
2023-10-20T19:42:33.755Z,21.80
2023-10-20T19:45:02.199Z,21.73
2023-10-20T19:47:28.977Z,21.68
2023-10-20T19:49:55.565Z,21.61
2023-10-20T19:52:22.088Z,21.64
2023-10-20T19:54:48.630Z,21.57
2023-10-20T19:57:15.125Z,21.57
2023-10-20T19:59:41.635Z,21.51
2023-10-20T20:02:08.917Z,21.50
2023-10-20T20:04:35.727Z,21.31
2023-10-20T20:07:02.311Z,21.30
2023-10-20T20:09:29.719Z,21.49
2023-10-20T20:11:57.156Z,21.41
2023-10-20T20:14:23.838Z,21.39
2023-10-20T20:16:50.643Z,21.37
2023-10-20T20:19:17.322Z,21.31
2023-10-20T20:21:43.927Z,21.21
2023-10-20T20:24:10.609Z,21.15
2023-10-20T20:26:37.314Z,21.10
2023-10-20T20:29:05.564Z,21.05
2023-10-20T20:31:32.608Z,21.01
2023-10-20T20:33:59.336Z,20.95
2023-10-20T20:36:25.862Z,20.92
2023-10-20T20:38:52.349Z,20.87
2023-10-20T20:41:18.853Z,20.83
2023-10-20T20:43:45.290Z,20.77
2023-10-20T20:46:11.887Z,20.72
2023-10-20T20:48:38.499Z,20.66
2023-10-20T20:51:09.357Z,20.56
2023-10-20T20:53:36.000Z,20.45
2023-10-20T20:56:02.467Z,20.46
2023-10-20T20:58:28.972Z,20.36
2023-10-20T21:00:56.351Z,20.30
2023-10-20T21:03:23.180Z,20.26
2023-10-20T21:05:59.239Z,20.19
2023-10-20T21:08:26.060Z,20.13
2023-10-20T21:10:52.574Z,20.05
2023-10-20T21:13:19.099Z,19.98
2023-10-20T21:15:45.706Z,19.88
2023-10-20T21:18:12.361Z,19.83
2023-10-20T21:20:39.317Z,19.76
2023-10-20T21:23:05.968Z,19.64
2023-10-20T21:25:39.140Z,19.55
2023-10-20T21:28:06.470Z,19.47
2023-10-20T21:30:36.615Z,19.37
2023-10-20T21:33:04.123Z,19.25
2023-10-20T21:35:31.076Z,19.19
2023-10-20T21:37:57.588Z,19.15
2023-10-20T21:40:24.069Z,19.07
2023-10-20T21:42:50.509Z,18.92
2023-10-20T21:45:17.123Z,18.91
2023-10-20T21:47:43.700Z,18.82
2023-10-20T21:50:10.540Z,18.86
2023-10-20T21:52:37.038Z,18.60
2023-10-20T21:55:05.026Z,18.59
2023-10-20T21:57:31.578Z,18.62
2023-10-20T21:59:58.144Z,18.56
2023-10-20T22:02:24.730Z,18.46
2023-10-20T22:04:54.099Z,18.46
2023-10-20T22:07:20.630Z,18.39
2023-10-20T22:09:53.864Z,18.38
2023-10-20T22:12:21.565Z,18.32
2023-10-20T22:14:48.173Z,18.37
2023-10-20T22:17:14.721Z,18.18
2023-10-20T22:19:41.221Z,18.18
2023-10-20T22:22:08.563Z,18.18
2023-10-20T22:24:35.062Z,18.13
2023-10-20T22:27:01.622Z,18.09
2023-10-20T22:29:28.349Z,17.99
2023-10-20T22:31:54.853Z,17.91
2023-10-20T22:34:21.382Z,17.78
2023-10-20T22:36:48.011Z,17.69
2023-10-20T22:39:16.080Z,17.68
2023-10-20T22:41:42.742Z,17.62
2023-10-20T22:44:09.813Z,17.61
2023-10-20T22:46:36.392Z,17.68
2023-10-20T22:49:03.119Z,17.52
2023-10-20T22:51:29.717Z,17.72
2023-10-20T22:53:56.373Z,17.71
2023-10-20T22:56:23.875Z,17.69
2023-10-20T22:58:50.378Z,17.54
2023-10-20T23:01:17.014Z,17.65
2023-10-20T23:03:43.712Z,17.78
2023-10-20T23:06:10.411Z,17.66
2023-10-20T23:08:36.964Z,17.60
2023-10-20T23:11:04.502Z,17.59
2023-10-20T23:13:31.024Z,17.67
2023-10-20T23:15:57.663Z,17.70
2023-10-20T23:18:24.262Z,17.66
2023-10-20T23:20:55.477Z,17.68
2023-10-20T23:23:22.329Z,17.78
2023-10-20T23:25:48.848Z,17.78
2023-10-20T23:28:15.396Z,17.69
2023-10-20T23:30:41.995Z,17.64
2023-10-20T23:33:08.679Z,17.63
2023-10-20T23:35:35.784Z,17.62
2023-10-20T23:38:02.309Z,17.54
2023-10-20T23:40:28.856Z,17.59
2023-10-20T23:42:55.481Z,17.56
2023-10-20T23:45:22.068Z,17.57
2023-10-20T23:47:48.654Z,17.59
2023-10-20T23:50:15.136Z,17.64
2023-10-20T23:52:41.636Z,17.62
2023-10-20T23:55:08.430Z,17.63
2023-10-20T23:57:34.902Z,17.63
